createdAt,value
2023-07-24T00:00:01.919Z,73.91
2023-07-24T00:01:03.732Z,73.33
2023-07-24T00:02:05.760Z,73.61
2023-07-24T00:03:07.708Z,74.55
2023-07-24T00:04:09.700Z,74.79
2023-07-24T00:05:11.651Z,75.04
2023-07-24T00:06:13.377Z,75.22
2023-07-24T00:07:15.105Z,74.69
2023-07-24T00:08:16.951Z,75.14
2023-07-24T00:09:18.874Z,74.99
2023-07-24T00:10:20.976Z,74.98
2023-07-24T00:11:24.433Z,74.15
2023-07-24T00:12:26.393Z,73.85
2023-07-24T00:13:28.936Z,73.84
2023-07-24T00:14:30.734Z,73.87
2023-07-24T00:15:32.686Z,73.41
2023-07-24T00:16:34.471Z,73.41
2023-07-24T00:17:36.331Z,73.54
2023-07-24T00:18:38.059Z,73.99
2023-07-24T00:19:39.803Z,74.08
2023-07-24T00:20:41.594Z,73.58
2023-07-24T00:21:43.445Z,73.31
2023-07-24T00:22:45.314Z,73.86
2023-07-24T00:23:47.127Z,73.56
2023-07-24T00:24:48.945Z,73.98
2023-07-24T00:25:51.044Z,73.99
2023-07-24T00:26:52.860Z,73.92
2023-07-24T00:27:54.812Z,73.73
2023-07-24T00:28:56.580Z,74.47
2023-07-24T00:29:58.386Z,74.40
2023-07-24T00:31:00.428Z,74.13
2023-07-24T00:32:02.283Z,74.12
2023-07-24T00:33:04.171Z,73.77
2023-07-24T00:34:06.027Z,74.12
2023-07-24T00:35:08.260Z,73.86
2023-07-24T00:36:10.184Z,73.72
2023-07-24T00:37:12.084Z,74.89
2023-07-24T00:38:13.953Z,75.11
2023-07-24T00:39:16.057Z,74.96
2023-07-24T00:40:17.952Z,74.34
2023-07-24T00:41:20.183Z,74.60
2023-07-24T00:42:22.365Z,74.39
2023-07-24T00:43:24.598Z,74.10
2023-07-24T00:44:26.364Z,73.89
2023-07-24T00:45:28.140Z,73.82
2023-07-24T00:46:34.289Z,74.49
2023-07-24T00:47:36.378Z,74.55
2023-07-24T00:48:38.782Z,74.73
2023-07-24T00:49:40.867Z,74.69
2023-07-24T00:50:46.958Z,74.27
2023-07-24T00:51:49.341Z,74.40
2023-07-24T00:52:51.193Z,75.04
2023-07-24T00:53:53.022Z,74.63
2023-07-24T00:54:55.013Z,74.63
2023-07-24T00:55:56.898Z,74.44
2023-07-24T00:56:58.726Z,74.84
2023-07-24T00:58:01.444Z,75.12
2023-07-24T00:59:03.298Z,75.28
2023-07-24T01:00:05.496Z,75.24
2023-07-24T01:01:07.368Z,75.02
2023-07-24T01:02:09.342Z,75.04
2023-07-24T01:03:11.259Z,75.29
2023-07-24T01:04:13.214Z,74.77
2023-07-24T01:05:16.148Z,74.77
2023-07-24T01:06:17.950Z,74.78
2023-07-24T01:07:19.766Z,75.39
2023-07-24T01:08:21.806Z,75.53
2023-07-24T01:09:23.653Z,75.83
2023-07-24T01:10:25.716Z,75.30
2023-07-24T01:11:34.660Z,74.97
2023-07-24T01:12:48.707Z,75.25
2023-07-24T01:13:57.407Z,75.04
2023-07-24T01:15:12.688Z,75.64
2023-07-24T01:16:15.891Z,75.25
2023-07-24T01:17:22.201Z,74.85
2023-07-24T01:18:25.474Z,74.74
2023-07-24T01:19:43.660Z,74.94
2023-07-24T01:20:56.775Z,75.37
2023-07-24T01:22:21.620Z,75.73
2023-07-24T01:23:42.007Z,75.65
2023-07-24T01:25:00.179Z,75.71
2023-07-24T01:26:05.659Z,75.33
2023-07-24T01:27:08.606Z,75.84
2023-07-24T01:28:10.761Z,75.58
2023-07-24T01:29:12.498Z,75.53
2023-07-24T01:30:17.876Z,75.94
2023-07-24T01:31:19.560Z,75.79
2023-07-24T01:32:21.982Z,75.62
2023-07-24T01:33:24.050Z,75.71
2023-07-24T01:34:25.980Z,75.83
2023-07-24T01:35:29.077Z,75.99
2023-07-24T01:36:31.043Z,76.11
2023-07-24T01:37:35.267Z,75.77
2023-07-24T01:38:37.940Z,75.50
2023-07-24T01:39:41.707Z,75.32
2023-07-24T01:40:44.151Z,75.53
2023-07-24T01:41:46.355Z,75.82
2023-07-24T01:42:48.854Z,75.64
2023-07-24T01:43:50.611Z,76.01
2023-07-24T01:44:53.226Z,76.77
2023-07-24T01:45:55.347Z,76.85
2023-07-24T01:46:57.273Z,76.65
2023-07-24T01:47:59.489Z,76.52
2023-07-24T01:49:01.353Z,76.72
2023-07-24T01:50:03.278Z,76.97
2023-07-24T01:51:05.081Z,77.39
2023-07-24T01:52:07.030Z,77.03
2023-07-24T01:53:08.907Z,77.18
2023-07-24T01:54:10.748Z,77.14
2023-07-24T01:55:12.480Z,77.67
2023-07-24T01:56:14.293Z,77.80
2023-07-24T01:57:16.276Z,77.81
2023-07-24T01:58:18.117Z,77.32
2023-07-24T01:59:19.920Z,77.25
2023-07-24T02:00:21.744Z,77.00
2023-07-24T02:01:23.620Z,76.69
2023-07-24T02:02:25.612Z,76.83
2023-07-24T02:03:27.491Z,77.08
2023-07-24T02:04:29.417Z,77.24
2023-07-24T02:05:31.907Z,77.46
2023-07-24T02:06:33.737Z,78.11
2023-07-24T02:07:35.756Z,78.03
2023-07-24T02:08:37.565Z,78.04
2023-07-24T02:09:39.431Z,77.79
2023-07-24T02:10:41.168Z,77.67
2023-07-24T02:11:43.237Z,77.54
2023-07-24T02:12:45.149Z,77.26
2023-07-24T02:13:47.363Z,77.43
2023-07-24T02:14:52.903Z,77.01
2023-07-24T02:15:55.495Z,76.69
2023-07-24T02:16:57.987Z,76.70
2023-07-24T02:17:59.785Z,76.59
2023-07-24T02:19:01.655Z,76.27
2023-07-24T02:20:03.508Z,76.20
2023-07-24T02:21:05.262Z,76.06
2023-07-24T02:22:07.083Z,76.66
2023-07-24T02:23:10.297Z,76.70
2023-07-24T02:24:12.471Z,76.58
2023-07-24T02:25:14.293Z,76.18
2023-07-24T02:26:16.075Z,76.18
2023-07-24T02:27:32.481Z,76.50
2023-07-24T02:28:34.417Z,76.16
2023-07-24T02:29:37.490Z,75.93
2023-07-24T02:30:40.094Z,76.21
2023-07-24T02:31:42.048Z,76.28
2023-07-24T02:32:43.899Z,76.46
2023-07-24T02:33:45.658Z,76.50
2023-07-24T02:34:47.622Z,76.22
2023-07-24T02:35:50.528Z,76.38
2023-07-24T02:36:52.263Z,76.57
2023-07-24T02:37:54.020Z,76.71
2023-07-24T02:38:55.800Z,76.59
2023-07-24T02:39:57.581Z,76.08
2023-07-24T02:40:59.449Z,76.08
2023-07-24T02:42:01.309Z,76.40
2023-07-24T02:43:03.127Z,76.18
2023-07-24T02:44:05.404Z,75.70
2023-07-24T02:45:12.402Z,75.63
2023-07-24T02:46:14.705Z,75.83
2023-07-24T02:47:16.531Z,76.13
2023-07-24T02:48:18.318Z,76.07
2023-07-24T02:49:20.090Z,76.23
2023-07-24T02:50:21.874Z,76.32
2023-07-24T02:51:23.673Z,76.19
2023-07-24T02:52:25.540Z,76.00
2023-07-24T02:53:27.282Z,76.24
2023-07-24T02:54:29.006Z,76.17
2023-07-24T02:55:30.767Z,76.11
2023-07-24T02:56:32.672Z,75.93
2023-07-24T02:57:34.714Z,75.96
2023-07-24T02:58:36.532Z,75.61
2023-07-24T02:59:38.438Z,76.03
2023-07-24T03:00:40.370Z,76.07
2023-07-24T03:01:42.164Z,75.92
2023-07-24T03:02:43.996Z,75.78
2023-07-24T03:03:45.980Z,75.79
2023-07-24T03:04:47.720Z,75.82
2023-07-24T03:05:49.911Z,75.96
2023-07-24T03:06:51.658Z,76.06
2023-07-24T03:07:53.834Z,76.41
2023-07-24T03:08:55.813Z,76.16
2023-07-24T03:09:57.674Z,76.19
2023-07-24T03:11:00.937Z,76.02
2023-07-24T03:12:02.720Z,76.45
2023-07-24T03:13:04.544Z,76.36
2023-07-24T03:14:06.748Z,76.43
2023-07-24T03:15:09.125Z,76.45
2023-07-24T03:16:10.969Z,76.01
2023-07-24T03:17:12.763Z,75.95
2023-07-24T03:18:14.704Z,75.75
2023-07-24T03:19:18.825Z,75.71
2023-07-24T03:20:21.352Z,75.53
2023-07-24T03:21:23.207Z,75.91
2023-07-24T03:22:25.073Z,75.83
2023-07-24T03:23:27.032Z,76.04
2023-07-24T03:24:29.441Z,75.93
2023-07-24T03:25:32.882Z,75.80
2023-07-24T03:26:34.717Z,75.72
2023-07-24T03:27:36.547Z,75.83
2023-07-24T03:28:38.375Z,75.98
2023-07-24T03:29:42.245Z,76.29
2023-07-24T03:30:44.269Z,76.32
2023-07-24T03:31:46.059Z,76.92
2023-07-24T03:32:47.843Z,76.57
2023-07-24T03:33:49.620Z,76.81
2023-07-24T03:34:51.481Z,76.94
2023-07-24T03:35:53.244Z,76.89
2023-07-24T03:36:54.957Z,77.33
2023-07-24T03:37:56.733Z,77.37
2023-07-24T03:38:58.607Z,77.23
2023-07-24T03:40:00.422Z,77.28
2023-07-24T03:41:02.344Z,76.98
2023-07-24T03:42:04.235Z,76.57
2023-07-24T03:43:06.009Z,77.02
2023-07-24T03:44:07.806Z,76.91
2023-07-24T03:45:09.855Z,77.18
2023-07-24T03:46:11.703Z,76.85
2023-07-24T03:47:13.498Z,76.79
2023-07-24T03:48:15.354Z,76.62
2023-07-24T03:49:17.233Z,76.61
2023-07-24T03:50:18.963Z,76.83
2023-07-24T03:51:20.685Z,76.64
2023-07-24T03:52:22.451Z,76.55
2023-07-24T03:53:24.159Z,76.40
2023-07-24T03:54:25.979Z,76.54
2023-07-24T03:55:27.875Z,76.59
2023-07-24T03:56:30.982Z,76.67
2023-07-24T03:57:33.265Z,76.59
2023-07-24T03:58:35.094Z,76.54
2023-07-24T03:59:37.207Z,76.70
2023-07-24T04:00:38.954Z,76.37
2023-07-24T04:01:40.724Z,76.55
2023-07-24T04:02:42.719Z,76.39
2023-07-24T04:03:44.518Z,76.24
2023-07-24T04:04:46.376Z,76.39
2023-07-24T04:05:48.298Z,76.97
2023-07-24T04:06:50.093Z,76.89
2023-07-24T04:07:52.048Z,76.72
2023-07-24T04:08:53.831Z,76.62
2023-07-24T04:09:55.637Z,76.69
2023-07-24T04:10:57.739Z,76.81
2023-07-24T04:11:59.695Z,76.99
2023-07-24T04:13:01.463Z,76.63
2023-07-24T04:14:03.217Z,76.65
2023-07-24T04:15:05.238Z,76.82
2023-07-24T04:16:07.191Z,76.55
2023-07-24T04:17:08.962Z,76.71
2023-07-24T04:18:11.245Z,76.65
2023-07-24T04:19:13.134Z,76.78
2023-07-24T04:20:14.953Z,76.99
2023-07-24T04:21:16.792Z,76.89
2023-07-24T04:22:18.567Z,77.13
2023-07-24T04:23:20.437Z,76.87
2023-07-24T04:24:22.225Z,77.03
2023-07-24T04:25:24.016Z,76.88
2023-07-24T04:26:25.781Z,77.09
2023-07-24T04:27:27.675Z,77.14
2023-07-24T04:28:29.566Z,77.12
2023-07-24T04:29:31.394Z,77.60
2023-07-24T04:30:33.906Z,77.34
2023-07-24T04:31:35.720Z,77.20
2023-07-24T04:32:37.547Z,77.26
2023-07-24T04:33:40.036Z,77.13
2023-07-24T04:34:41.879Z,76.89
2023-07-24T04:35:43.828Z,76.77
2023-07-24T04:36:45.711Z,76.88
2023-07-24T04:37:47.509Z,76.91
2023-07-24T04:38:49.267Z,76.96
2023-07-24T04:39:51.154Z,77.26
2023-07-24T04:40:52.988Z,77.39
2023-07-24T04:41:54.754Z,77.34
2023-07-24T04:42:56.607Z,76.93
2023-07-24T04:43:58.529Z,76.80
2023-07-24T04:45:00.362Z,76.75
2023-07-24T04:46:02.160Z,76.65
2023-07-24T04:47:04.075Z,76.51
2023-07-24T04:48:06.495Z,76.70
2023-07-24T04:49:08.239Z,76.90
2023-07-24T04:50:10.163Z,76.96
2023-07-24T04:51:12.017Z,76.97
2023-07-24T04:52:13.786Z,76.83
2023-07-24T04:53:15.600Z,76.64
2023-07-24T04:54:17.826Z,76.53
2023-07-24T04:55:19.582Z,76.90
2023-07-24T04:56:21.325Z,76.92
2023-07-24T04:57:23.193Z,76.87
2023-07-24T04:58:25.426Z,76.79
2023-07-24T04:59:27.299Z,77.21
2023-07-24T05:00:29.095Z,77.14
2023-07-24T05:01:30.884Z,77.24
2023-07-24T05:02:32.683Z,76.82
2023-07-24T05:03:34.450Z,77.01
2023-07-24T05:04:36.226Z,77.03
2023-07-24T05:05:45.086Z,76.71
2023-07-24T05:06:48.265Z,76.63
2023-07-24T05:07:50.002Z,76.52
2023-07-24T05:08:51.817Z,76.59
2023-07-24T05:09:53.713Z,76.62
2023-07-24T05:10:58.869Z,76.90
2023-07-24T05:12:00.663Z,76.97
2023-07-24T05:13:02.523Z,77.43
2023-07-24T05:14:04.270Z,77.25
2023-07-24T05:15:06.309Z,77.32
2023-07-24T05:16:08.230Z,77.20
2023-07-24T05:17:10.009Z,77.66
2023-07-24T05:18:11.779Z,77.44
2023-07-24T05:19:13.726Z,77.25
2023-07-24T05:20:15.701Z,77.01
2023-07-24T05:21:17.666Z,76.93
2023-07-24T05:22:19.482Z,77.22
2023-07-24T05:23:21.315Z,76.90
2023-07-24T05:24:23.140Z,76.87
2023-07-24T05:25:25.010Z,76.85
2023-07-24T05:26:26.867Z,76.95
2023-07-24T05:27:28.652Z,76.84
2023-07-24T05:28:31.184Z,76.87
2023-07-24T05:29:33.566Z,76.76
2023-07-24T05:30:35.592Z,76.82
2023-07-24T05:31:37.832Z,76.87
2023-07-24T05:32:39.638Z,77.06
2023-07-24T05:33:41.409Z,77.01
2023-07-24T05:34:45.255Z,76.98
2023-07-24T05:35:49.569Z,77.20
2023-07-24T05:36:51.368Z,77.01
2023-07-24T05:37:53.159Z,77.09
2023-07-24T05:38:55.000Z,77.22
2023-07-24T05:39:56.818Z,77.11
2023-07-24T05:41:02.825Z,77.01
2023-07-24T05:42:05.192Z,77.14
2023-07-24T05:43:07.026Z,76.79
2023-07-24T05:44:09.176Z,76.84
2023-07-24T05:45:12.650Z,76.87
2023-07-24T05:46:14.571Z,76.88
2023-07-24T05:47:16.526Z,76.56
2023-07-24T05:48:18.435Z,77.11
2023-07-24T05:49:20.262Z,77.02
2023-07-24T05:50:22.018Z,77.01
2023-07-24T05:51:23.948Z,76.78
2023-07-24T05:52:25.767Z,76.87
2023-07-24T05:53:27.464Z,76.92
2023-07-24T05:54:29.236Z,77.03
2023-07-24T05:55:31.368Z,76.95
2023-07-24T05:56:33.275Z,76.80
2023-07-24T05:57:35.392Z,76.95
2023-07-24T05:58:37.197Z,76.72
2023-07-24T05:59:38.955Z,76.68
2023-07-24T06:00:40.797Z,76.39
2023-07-24T06:01:42.605Z,76.42
2023-07-24T06:02:45.148Z,76.11
2023-07-24T06:03:46.964Z,76.07
2023-07-24T06:04:48.702Z,75.87
2023-07-24T06:05:54.519Z,75.87
2023-07-24T06:06:56.378Z,76.04
2023-07-24T06:07:58.160Z,76.20
2023-07-24T06:09:00.041Z,75.89
2023-07-24T06:10:01.893Z,75.91
2023-07-24T06:11:03.664Z,75.93
2023-07-24T06:12:05.653Z,75.74
2023-07-24T06:13:07.422Z,75.54
2023-07-24T06:14:09.217Z,75.45
2023-07-24T06:15:11.134Z,75.49
2023-07-24T06:16:15.507Z,75.29
2023-07-24T06:17:17.436Z,75.26
2023-07-24T06:18:19.397Z,75.11
2023-07-24T06:19:21.383Z,75.07
2023-07-24T06:20:23.173Z,75.49
2023-07-24T06:21:24.929Z,75.17
2023-07-24T06:22:26.677Z,75.49
2023-07-24T06:23:28.424Z,75.26
2023-07-24T06:24:30.312Z,74.93
2023-07-24T06:25:32.874Z,75.01
2023-07-24T06:26:34.745Z,74.92
2023-07-24T06:27:36.559Z,74.77
2023-07-24T06:28:38.354Z,74.91
2023-07-24T06:29:40.301Z,74.78
2023-07-24T06:30:42.682Z,74.37
2023-07-24T06:31:44.726Z,74.41
2023-07-24T06:32:46.726Z,74.33
2023-07-24T06:33:48.960Z,74.58
2023-07-24T06:34:50.663Z,74.39
2023-07-24T06:35:52.662Z,74.17
2023-07-24T06:36:54.697Z,74.27
2023-07-24T06:37:58.042Z,74.40
2023-07-24T06:38:59.852Z,74.14
2023-07-24T06:40:01.663Z,73.97
2023-07-24T06:41:04.381Z,73.97
2023-07-24T06:42:06.299Z,73.57
2023-07-24T06:43:08.091Z,73.73
2023-07-24T06:44:09.916Z,73.18
2023-07-24T06:45:11.713Z,73.25
2023-07-24T06:46:13.538Z,73.08
2023-07-24T06:47:15.304Z,72.94
2023-07-24T06:48:17.157Z,72.96
2023-07-24T06:49:18.981Z,72.74
2023-07-24T06:50:20.816Z,72.53
2023-07-24T06:51:22.736Z,72.66
2023-07-24T06:52:24.613Z,72.35
2023-07-24T06:53:26.536Z,72.19
2023-07-24T06:54:28.347Z,71.57
2023-07-24T06:55:30.090Z,71.73
2023-07-24T06:56:32.363Z,71.67
2023-07-24T06:57:34.808Z,71.67
2023-07-24T06:58:36.836Z,71.59
2023-07-24T06:59:38.629Z,71.32
2023-07-24T07:00:40.367Z,71.36
2023-07-24T07:01:42.161Z,71.54
2023-07-24T07:02:44.166Z,71.45
2023-07-24T07:03:45.992Z,71.29
2023-07-24T07:04:47.874Z,71.69
2023-07-24T07:05:49.719Z,71.53
2023-07-24T07:06:51.880Z,71.25
2023-07-24T07:07:53.846Z,71.76
2023-07-24T07:08:55.812Z,71.25
2023-07-24T07:09:57.787Z,71.53
2023-07-24T07:11:00.615Z,71.52
2023-07-24T07:12:02.515Z,71.04
2023-07-24T07:13:04.399Z,70.39
2023-07-24T07:14:06.326Z,70.63
2023-07-24T07:15:08.740Z,70.94
2023-07-24T07:16:10.581Z,71.66
2023-07-24T07:17:12.503Z,71.45
2023-07-24T07:18:15.630Z,71.23
2023-07-24T07:19:18.074Z,70.94
2023-07-24T07:20:20.110Z,71.00
2023-07-24T07:21:22.014Z,70.30
2023-07-24T07:22:23.753Z,70.12
2023-07-24T07:23:25.624Z,70.07
2023-07-24T07:24:27.484Z,70.31
2023-07-24T07:25:29.377Z,70.52
2023-07-24T07:26:31.585Z,71.26
2023-07-24T07:27:33.831Z,70.55
2023-07-24T07:28:35.570Z,70.52
2023-07-24T07:29:37.399Z,70.00
2023-07-24T07:30:41.001Z,69.96
2023-07-24T07:31:43.313Z,70.67
2023-07-24T07:32:45.266Z,70.95
2023-07-24T07:33:47.051Z,71.79
2023-07-24T07:34:48.824Z,72.05
2023-07-24T07:35:50.679Z,69.86
2023-07-24T07:36:52.534Z,70.47
2023-07-24T07:37:54.301Z,70.21
2023-07-24T07:38:56.090Z,69.96
2023-07-24T07:39:57.840Z,69.39
2023-07-24T07:40:59.821Z,69.49
2023-07-24T07:43:09.791Z,68.59
2023-07-24T07:44:11.551Z,68.56
2023-07-24T07:45:13.350Z,67.97
2023-07-24T07:46:15.948Z,68.90
2023-07-24T07:47:17.660Z,68.89
2023-07-24T07:48:19.466Z,68.70
2023-07-24T07:49:21.169Z,68.33
2023-07-24T07:50:23.044Z,68.37
2023-07-24T07:51:27.013Z,67.83
2023-07-24T07:52:28.726Z,67.46
2023-07-24T07:53:30.619Z,67.64
2023-07-24T07:54:32.371Z,67.51
2023-07-24T07:55:34.178Z,68.09
2023-07-24T07:56:36.011Z,68.02
2023-07-24T07:57:38.185Z,67.37
2023-07-24T07:58:39.912Z,67.44
2023-07-24T07:59:41.710Z,67.30
2023-07-24T08:00:43.602Z,67.77
2023-07-24T08:01:47.226Z,68.47
2023-07-24T08:02:49.413Z,68.35
2023-07-24T08:03:51.280Z,67.40
2023-07-24T08:04:53.107Z,66.79
2023-07-24T08:05:57.907Z,66.14
2023-07-24T08:06:59.767Z,66.54
2023-07-24T08:08:01.483Z,66.81
2023-07-24T08:09:03.411Z,67.65
2023-07-24T08:10:05.598Z,67.70
2023-07-24T08:11:07.685Z,68.38
2023-07-24T08:12:09.676Z,67.62
2023-07-24T08:13:11.550Z,66.46
2023-07-24T08:14:13.393Z,66.87
2023-07-24T08:15:15.236Z,66.56
2023-07-24T08:16:19.909Z,65.61
2023-07-24T08:17:22.464Z,65.72
2023-07-24T08:18:24.742Z,64.67
2023-07-24T08:19:29.148Z,65.07
2023-07-24T08:20:30.909Z,66.17
2023-07-24T08:21:32.724Z,65.15
2023-07-24T08:22:34.646Z,64.72
2023-07-24T08:23:36.413Z,64.08
2023-07-24T08:24:38.275Z,65.57
2023-07-24T08:25:40.134Z,65.70
2023-07-24T08:26:41.981Z,64.80
2023-07-24T08:28:00.644Z,64.73
2023-07-24T08:29:07.170Z,64.05
2023-07-24T08:30:08.971Z,63.21
2023-07-24T08:31:11.301Z,63.41
2023-07-24T08:32:14.400Z,63.82
2023-07-24T08:33:16.346Z,64.14
2023-07-24T08:34:18.185Z,64.50
2023-07-24T08:35:19.913Z,64.53
2023-07-24T08:36:21.788Z,64.16
2023-07-24T08:37:23.537Z,63.93
2023-07-24T08:38:25.945Z,64.31
2023-07-24T08:39:27.730Z,63.43
2023-07-24T08:40:29.526Z,64.49
2023-07-24T08:41:33.836Z,64.05
2023-07-24T08:42:35.758Z,62.11
2023-07-24T08:43:38.331Z,61.22
2023-07-24T08:44:40.402Z,60.79
2023-07-24T08:45:42.181Z,61.03
2023-07-24T08:46:47.209Z,61.81
2023-07-24T08:47:49.913Z,62.67
2023-07-24T08:48:52.539Z,63.77
2023-07-24T08:49:55.435Z,63.54
2023-07-24T08:50:57.412Z,64.09
2023-07-24T08:52:01.617Z,63.33
2023-07-24T08:53:04.149Z,63.40
2023-07-24T08:54:06.084Z,62.97
2023-07-24T08:55:08.041Z,62.97
2023-07-24T08:56:11.057Z,62.81
2023-07-24T08:57:13.584Z,62.20
2023-07-24T08:58:15.402Z,63.12
2023-07-24T08:59:17.341Z,63.33
2023-07-24T09:00:19.310Z,59.65
2023-07-24T09:01:21.564Z,60.49
2023-07-24T09:02:23.357Z,60.43
2023-07-24T09:03:25.717Z,60.94
2023-07-24T09:04:27.794Z,60.85
2023-07-24T09:05:29.604Z,58.86
2023-07-24T09:06:31.971Z,59.07
2023-07-24T09:07:34.335Z,59.29
2023-07-24T09:08:36.027Z,59.02
2023-07-24T09:09:37.929Z,59.34
2023-07-24T09:10:40.213Z,59.03
2023-07-24T09:11:52.447Z,59.97
2023-07-24T09:12:54.232Z,58.92
2023-07-24T09:13:56.051Z,59.11
2023-07-24T09:15:05.768Z,56.78
2023-07-24T09:16:08.917Z,58.24
2023-07-24T09:17:11.774Z,58.28
2023-07-24T09:18:13.645Z,59.08
2023-07-24T09:19:26.668Z,58.72
2023-07-24T09:20:38.762Z,58.11
2023-07-24T09:21:40.479Z,57.95
2023-07-24T09:23:10.498Z,58.55
2023-07-24T09:24:15.713Z,57.07
2023-07-24T09:25:17.543Z,57.55
2023-07-24T09:26:19.378Z,56.57
2023-07-24T09:27:21.827Z,57.81
2023-07-24T09:28:23.749Z,57.79
2023-07-24T09:29:31.808Z,58.18
2023-07-24T09:30:33.601Z,57.07
2023-07-24T09:31:36.832Z,57.78
2023-07-24T09:32:39.417Z,57.66
2023-07-24T09:33:41.888Z,56.43
2023-07-24T09:34:44.005Z,56.28
2023-07-24T09:35:45.908Z,56.80
2023-07-24T09:36:47.861Z,57.17
2023-07-24T09:37:49.690Z,58.36
2023-07-24T09:39:01.407Z,57.79
2023-07-24T09:40:06.621Z,57.82
2023-07-24T09:41:08.437Z,57.97
2023-07-24T09:42:11.056Z,59.46
2023-07-24T09:43:37.181Z,58.57
2023-07-24T09:44:40.425Z,59.66
2023-07-24T09:45:45.937Z,59.96
2023-07-24T09:48:07.911Z,60.41
2023-07-24T09:49:11.915Z,60.67
2023-07-24T09:50:14.402Z,60.55
2023-07-24T09:51:16.522Z,58.75
2023-07-24T09:52:19.330Z,59.28
2023-07-24T09:53:39.561Z,59.13
2023-07-24T09:54:49.674Z,58.21
2023-07-24T09:56:04.853Z,58.50
2023-07-24T09:57:19.335Z,58.17
2023-07-24T09:58:24.534Z,58.08
2023-07-24T09:59:27.990Z,57.90
2023-07-24T10:00:30.354Z,58.03
2023-07-24T10:01:33.539Z,57.80
2023-07-24T10:02:36.628Z,57.79
2023-07-24T10:03:43.883Z,57.17
2023-07-24T10:04:47.997Z,57.87
2023-07-24T10:05:50.056Z,56.98
2023-07-24T10:06:52.669Z,57.38
2023-07-24T10:07:54.632Z,57.03
2023-07-24T10:08:56.665Z,57.50
2023-07-24T10:09:59.216Z,58.19
2023-07-24T10:11:01.012Z,57.94
2023-07-24T10:12:02.928Z,59.03
2023-07-24T10:13:05.206Z,59.05
2023-07-24T10:14:07.151Z,58.10
2023-07-24T10:15:09.267Z,57.99
2023-07-24T10:16:11.245Z,59.33
2023-07-24T10:17:13.005Z,58.44
2023-07-24T10:18:16.441Z,58.34
2023-07-24T10:19:18.340Z,57.94
2023-07-24T10:20:20.706Z,56.97
2023-07-24T10:21:28.242Z,57.18
2023-07-24T10:22:30.092Z,57.44
2023-07-24T10:23:32.184Z,57.80
2023-07-24T10:24:41.945Z,57.75
2023-07-24T10:25:45.797Z,57.19
2023-07-24T10:26:47.810Z,57.86
2023-07-24T10:27:50.632Z,58.04
2023-07-24T10:28:52.514Z,57.02
2023-07-24T10:30:14.886Z,57.38
2023-07-24T10:31:28.590Z,56.95
2023-07-24T10:32:30.871Z,56.79
2023-07-24T10:33:33.304Z,56.58
2023-07-24T10:34:41.943Z,56.87
2023-07-24T10:35:45.572Z,55.78
2023-07-24T10:36:47.434Z,56.14
2023-07-24T10:37:49.209Z,54.95
2023-07-24T10:38:55.428Z,54.39
2023-07-24T10:39:57.193Z,54.90
2023-07-24T10:41:03.524Z,53.96
2023-07-24T10:42:11.827Z,53.75
2023-07-24T10:43:15.476Z,54.67
2023-07-24T10:44:17.393Z,54.43
2023-07-24T10:45:19.194Z,53.21
2023-07-24T10:46:22.308Z,53.21
2023-07-24T10:47:24.282Z,53.71
2023-07-24T10:48:26.891Z,53.99
2023-07-24T10:49:28.589Z,53.67
2023-07-24T10:50:37.559Z,53.52
2023-07-24T10:51:39.447Z,53.39
2023-07-24T10:52:42.328Z,53.21
2023-07-24T10:53:48.127Z,53.36
2023-07-24T10:54:52.016Z,54.16
2023-07-24T10:55:53.821Z,53.88
2023-07-24T10:56:59.871Z,56.29
2023-07-24T10:58:01.588Z,54.26
2023-07-24T10:59:04.151Z,53.29
2023-07-24T11:00:06.326Z,53.49
2023-07-24T11:01:09.471Z,53.31
2023-07-24T11:02:11.561Z,52.31
2023-07-24T11:03:13.978Z,52.69
2023-07-24T11:04:15.782Z,53.46
2023-07-24T11:05:17.655Z,52.00
2023-07-24T11:06:20.322Z,51.38
2023-07-24T11:07:22.087Z,52.37
2023-07-24T11:08:23.897Z,50.67
2023-07-24T11:09:35.536Z,50.28
2023-07-24T11:10:37.457Z,50.97
2023-07-24T11:11:39.212Z,49.91
2023-07-24T11:12:40.981Z,49.92
2023-07-24T11:13:42.897Z,50.18
2023-07-24T11:14:51.307Z,50.69
2023-07-24T11:15:53.926Z,48.71
2023-07-24T11:16:55.736Z,50.87
2023-07-24T11:17:57.518Z,52.04
2023-07-24T11:18:59.328Z,51.28
2023-07-24T11:20:11.743Z,50.51
2023-07-24T11:21:13.757Z,50.94
2023-07-24T11:22:15.892Z,50.88
2023-07-24T11:23:17.843Z,50.35
2023-07-24T11:24:19.832Z,49.67
2023-07-24T11:25:21.643Z,49.27
2023-07-24T11:26:25.004Z,49.96
2023-07-24T11:27:26.857Z,50.35
2023-07-24T11:28:28.592Z,50.18
2023-07-24T11:29:33.794Z,50.17
2023-07-24T11:30:36.087Z,50.92
2023-07-24T11:31:38.963Z,51.24
2023-07-24T11:32:42.197Z,48.89
2023-07-24T11:33:44.872Z,49.97
2023-07-24T11:34:48.038Z,50.68
2023-07-24T11:35:49.900Z,49.67
2023-07-24T11:36:51.855Z,48.93
2023-07-24T11:37:53.865Z,48.19
2023-07-24T11:38:55.951Z,48.47
2023-07-24T11:39:58.631Z,47.73
2023-07-24T11:41:00.452Z,48.13
2023-07-24T11:42:02.565Z,46.78
2023-07-24T11:43:04.812Z,47.91
2023-07-24T11:44:06.851Z,46.92
2023-07-24T11:45:11.250Z,45.49
2023-07-24T11:46:13.097Z,45.35
2023-07-24T11:47:14.981Z,46.50
2023-07-24T11:48:16.929Z,46.29
2023-07-24T11:49:19.787Z,44.55
2023-07-24T11:50:22.438Z,45.78
2023-07-24T11:51:25.993Z,44.85
2023-07-24T11:52:27.896Z,46.46
2023-07-24T11:53:30.906Z,47.31
2023-07-24T11:54:35.059Z,47.52
2023-07-24T11:55:36.829Z,47.53
2023-07-24T11:56:38.740Z,47.36
2023-07-24T11:57:40.664Z,45.73
2023-07-24T11:58:42.503Z,46.45
2023-07-24T11:59:44.402Z,44.78
2023-07-24T12:00:47.673Z,45.20
2023-07-24T12:01:50.126Z,45.16
2023-07-24T12:02:52.529Z,45.27
2023-07-24T12:03:55.124Z,46.50
2023-07-24T12:04:58.519Z,47.35
2023-07-24T12:06:00.344Z,47.70
2023-07-24T12:07:02.202Z,47.42
2023-07-24T12:08:05.058Z,46.68
2023-07-24T12:09:07.948Z,47.76
2023-07-24T12:10:10.344Z,47.81
2023-07-24T12:11:19.830Z,48.35
2023-07-24T12:12:21.756Z,49.04
2023-07-24T12:13:24.192Z,49.60
2023-07-24T12:14:26.991Z,49.38
2023-07-24T12:15:28.923Z,49.63
2023-07-24T12:16:32.301Z,49.94
2023-07-24T12:17:34.010Z,49.55
2023-07-24T12:18:36.603Z,50.28
2023-07-24T12:19:38.717Z,50.04
2023-07-24T12:20:41.353Z,50.11
2023-07-24T12:21:43.236Z,50.05
2023-07-24T12:22:45.176Z,50.75
2023-07-24T12:23:47.076Z,50.07
2023-07-24T12:24:49.019Z,50.08
2023-07-24T12:25:50.946Z,50.11
2023-07-24T12:26:52.684Z,51.55
2023-07-24T12:27:54.889Z,50.91
2023-07-24T12:28:56.769Z,51.81
2023-07-24T12:29:58.740Z,51.90
2023-07-24T12:31:00.503Z,52.36
2023-07-24T12:32:02.416Z,52.05
2023-07-24T12:33:04.242Z,52.10
2023-07-24T12:34:06.027Z,51.06
2023-07-24T12:35:08.985Z,51.53
2023-07-24T12:36:10.983Z,51.48
2023-07-24T12:37:12.806Z,51.44
2023-07-24T12:38:14.811Z,50.74
2023-07-24T12:39:16.638Z,51.98
2023-07-24T12:40:18.377Z,52.51
2023-07-24T12:41:20.100Z,52.54
2023-07-24T12:42:21.898Z,51.65
2023-07-24T12:43:23.739Z,51.71
2023-07-24T12:44:27.461Z,52.14
2023-07-24T12:45:29.224Z,52.55
2023-07-24T12:46:31.133Z,51.60
2023-07-24T12:47:33.917Z,51.43
2023-07-24T12:48:37.321Z,52.09
2023-07-24T12:49:39.422Z,51.38
2023-07-24T12:50:41.202Z,50.42
2023-07-24T12:51:42.923Z,51.51
2023-07-24T12:52:44.766Z,51.29
2023-07-24T12:53:57.341Z,50.93
2023-07-24T12:55:02.576Z,50.91
2023-07-24T12:56:04.809Z,51.14
2023-07-24T12:57:06.827Z,50.10
2023-07-24T12:58:08.583Z,50.47
2023-07-24T12:59:10.375Z,50.05
2023-07-24T13:00:12.464Z,51.33
2023-07-24T13:01:14.589Z,51.48
2023-07-24T13:02:16.538Z,50.79
2023-07-24T13:03:18.511Z,50.74
2023-07-24T13:04:24.120Z,49.65
2023-07-24T13:05:25.970Z,49.53
2023-07-24T13:06:28.380Z,49.36
2023-07-24T13:07:30.684Z,49.78
2023-07-24T13:08:32.449Z,49.83
2023-07-24T13:09:34.261Z,49.08
2023-07-24T13:10:36.184Z,48.83
2023-07-24T13:11:37.944Z,47.65
2023-07-24T13:12:39.698Z,47.25
2023-07-24T13:13:41.574Z,48.04
2023-07-24T13:14:43.881Z,48.35
2023-07-24T13:15:45.692Z,47.79
2023-07-24T13:16:47.793Z,46.60
2023-07-24T13:17:49.786Z,47.61
2023-07-24T13:18:51.690Z,47.43
2023-07-24T13:19:53.441Z,48.02
2023-07-24T13:20:55.238Z,48.71
2023-07-24T13:21:57.055Z,48.68
2023-07-24T13:22:58.925Z,47.37
2023-07-24T13:24:00.676Z,47.24
2023-07-24T13:25:02.547Z,46.92
2023-07-24T13:26:04.870Z,47.40
2023-07-24T13:27:06.910Z,47.90
2023-07-24T13:28:08.791Z,47.95
2023-07-24T13:29:10.657Z,47.64
2023-07-24T13:30:12.618Z,47.42